sensor_id;sensor_type;location;lat;lon;timestamp;P1;durP1;ratioP1;P2;durP2;ratioP2
9178;SDS011;4624;48.126;11.546;2023-04-08T00:00:00;9.33;;;7.03;;
9178;SDS011;4624;48.126;11.546;2023-04-08T00:02:28;20.77;;;11.17;;
9178;SDS011;4624;48.126;11.546;2023-04-08T00:04:55;18.40;;;10.20;;
9178;SDS011;4624;48.126;11.546;2023-04-08T00:07:21;60.13;;;24.43;;
9178;SDS011;4624;48.126;11.546;2023-04-08T00:09:48;28.30;;;13.33;;
9178;SDS011;4624;48.126;11.546;2023-04-08T00:12:15;31.03;;;12.10;;
9178;SDS011;4624;48.126;11.546;2023-04-08T00:14:42;16.83;;;7.87;;
9178;SDS011;4624;48.126;11.546;2023-04-08T00:17:10;19.83;;;9.40;;
9178;SDS011;4624;48.126;11.546;2023-04-08T00:19:36;30.00;;;12.07;;
9178;SDS011;4624;48.126;11.546;2023-04-08T00:22:03;64.63;;;23.47;;
9178;SDS011;4624;48.126;11.546;2023-04-08T00:24:30;80.67;;;29.57;;
9178;SDS011;4624;48.126;11.546;2023-04-08T00:26:57;58.13;;;24.60;;
9178;SDS011;4624;48.126;11.546;2023-04-08T00:29:24;44.20;;;17.90;;
9178;SDS011;4624;48.126;11.546;2023-04-08T00:31:51;37.80;;;14.20;;
9178;SDS011;4624;48.126;11.546;2023-04-08T00:34:19;42.37;;;17.40;;
9178;SDS011;4624;48.126;11.546;2023-04-08T00:36:46;63.30;;;23.07;;
9178;SDS011;4624;48.126;11.546;2023-04-08T00:39:13;75.13;;;27.63;;
9178;SDS011;4624;48.126;11.546;2023-04-08T00:41:40;54.77;;;23.53;;
9178;SDS011;4624;48.126;11.546;2023-04-08T00:44:07;32.63;;;14.43;;
9178;SDS011;4624;48.126;11.546;2023-04-08T00:46:35;16.87;;;8.77;;
9178;SDS011;4624;48.126;11.546;2023-04-08T00:49:04;10.37;;;6.73;;
9178;SDS011;4624;48.126;11.546;2023-04-08T00:51:33;4.80;;;4.40;;
9178;SDS011;4624;48.126;11.546;2023-04-08T00:54:01;7.53;;;4.47;;
9178;SDS011;4624;48.126;11.546;2023-04-08T00:56:29;4.60;;;3.97;;
9178;SDS011;4624;48.126;11.546;2023-04-08T00:58:57;3.80;;;3.50;;
9178;SDS011;4624;48.126;11.546;2023-04-08T01:01:26;4.93;;;4.23;;
9178;SDS011;4624;48.126;11.546;2023-04-08T01:04:01;6.30;;;4.23;;
9178;SDS011;4624;48.126;11.546;2023-04-08T01:06:37;5.47;;;4.50;;
9178;SDS011;4624;48.126;11.546;2023-04-08T01:09:07;4.70;;;3.30;;
9178;SDS011;4624;48.126;11.546;2023-04-08T01:11:35;4.23;;;3.80;;
9178;SDS011;4624;48.126;11.546;2023-04-08T01:14:07;3.83;;;3.40;;
9178;SDS011;4624;48.126;11.546;2023-04-08T01:16:37;3.67;;;3.27;;
9178;SDS011;4624;48.126;11.546;2023-04-08T01:19:04;3.43;;;3.13;;
9178;SDS011;4624;48.126;11.546;2023-04-08T01:21:35;3.43;;;3.17;;
9178;SDS011;4624;48.126;11.546;2023-04-08T01:24:04;3.90;;;3.50;;
9178;SDS011;4624;48.126;11.546;2023-04-08T01:26:36;4.53;;;3.50;;
9178;SDS011;4624;48.126;11.546;2023-04-08T01:29:04;5.07;;;4.13;;
9178;SDS011;4624;48.126;11.546;2023-04-08T01:31:32;4.90;;;3.70;;
9178;SDS011;4624;48.126;11.546;2023-04-08T01:34:02;4.00;;;3.60;;
9178;SDS011;4624;48.126;11.546;2023-04-08T01:36:30;3.87;;;3.37;;
9178;SDS011;4624;48.126;11.546;2023-04-08T01:39:00;6.17;;;3.67;;
9178;SDS011;4624;48.126;11.546;2023-04-08T01:41:29;4.30;;;3.67;;
9178;SDS011;4624;48.126;11.546;2023-04-08T01:44:00;4.40;;;3.93;;
9178;SDS011;4624;48.126;11.546;2023-04-08T01:46:28;6.13;;;3.97;;
9178;SDS011;4624;48.126;11.546;2023-04-08T01:48:56;5.33;;;3.97;;
9178;SDS011;4624;48.126;11.546;2023-04-08T01:51:24;4.20;;;3.77;;
9178;SDS011;4624;48.126;11.546;2023-04-08T01:53:52;5.07;;;3.57;;
9178;SDS011;4624;48.126;11.546;2023-04-08T01:56:19;4.63;;;3.70;;
9178;SDS011;4624;48.126;11.546;2023-04-08T01:58:50;3.63;;;3.33;;
9178;SDS011;4624;48.126;11.546;2023-04-08T02:01:21;4.47;;;4.07;;
9178;SDS011;4624;48.126;11.546;2023-04-08T02:03:50;6.40;;;4.07;;
9178;SDS011;4624;48.126;11.546;2023-04-08T02:06:21;5.00;;;4.47;;
9178;SDS011;4624;48.126;11.546;2023-04-08T02:08:48;6.47;;;5.10;;
9178;SDS011;4624;48.126;11.546;2023-04-08T02:11:15;7.90;;;5.10;;
9178;SDS011;4624;48.126;11.546;2023-04-08T02:13:41;11.10;;;6.40;;
9178;SDS011;4624;48.126;11.546;2023-04-08T02:16:09;8.63;;;6.10;;
9178;SDS011;4624;48.126;11.546;2023-04-08T02:18:44;7.10;;;4.97;;
9178;SDS011;4624;48.126;11.546;2023-04-08T02:21:21;8.60;;;4.80;;
9178;SDS011;4624;48.126;11.546;2023-04-08T02:23:57;5.00;;;4.30;;
9178;SDS011;4624;48.126;11.546;2023-04-08T02:26:25;4.80;;;4.07;;
9178;SDS011;4624;48.126;11.546;2023-04-08T02:28:52;4.67;;;3.90;;
9178;SDS011;4624;48.126;11.546;2023-04-08T02:31:20;5.40;;;4.23;;
9178;SDS011;4624;48.126;11.546;2023-04-08T02:33:51;4.50;;;3.90;;
9178;SDS011;4624;48.126;11.546;2023-04-08T02:36:18;4.33;;;3.93;;
9178;SDS011;4624;48.126;11.546;2023-04-08T02:38:46;4.83;;;3.97;;
9178;SDS011;4624;48.126;11.546;2023-04-08T02:41:13;4.97;;;4.10;;
9178;SDS011;4624;48.126;11.546;2023-04-08T02:43:41;4.17;;;3.77;;
9178;SDS011;4624;48.126;11.546;2023-04-08T02:46:07;4.70;;;4.20;;
9178;SDS011;4624;48.126;11.546;2023-04-08T02:48:36;4.37;;;4.00;;
9178;SDS011;4624;48.126;11.546;2023-04-08T02:51:04;4.60;;;4.17;;
9178;SDS011;4624;48.126;11.546;2023-04-08T02:53:31;3.90;;;3.60;;
9178;SDS011;4624;48.126;11.546;2023-04-08T02:55:58;4.67;;;3.80;;
9178;SDS011;4624;48.126;11.546;2023-04-08T02:58:25;4.77;;;4.27;;
9178;SDS011;4624;48.126;11.546;2023-04-08T03:00:52;4.83;;;4.43;;
9178;SDS011;4624;48.126;11.546;2023-04-08T03:03:18;5.47;;;4.30;;
9178;SDS011;4624;48.126;11.546;2023-04-08T03:05:51;4.77;;;4.37;;
9178;SDS011;4624;48.126;11.546;2023-04-08T03:08:19;4.90;;;4.40;;
9178;SDS011;4624;48.126;11.546;2023-04-08T03:10:46;5.07;;;4.13;;
9178;SDS011;4624;48.126;11.546;2023-04-08T03:13:13;4.57;;;4.17;;
9178;SDS011;4624;48.126;11.546;2023-04-08T03:15:40;5.17;;;4.23;;
9178;SDS011;4624;48.126;11.546;2023-04-08T03:18:07;4.87;;;4.23;;
9178;SDS011;4624;48.126;11.546;2023-04-08T03:20:34;4.97;;;4.57;;
9178;SDS011;4624;48.126;11.546;2023-04-08T03:23:00;5.03;;;4.27;;
9178;SDS011;4624;48.126;11.546;2023-04-08T03:25:28;4.63;;;4.23;;
9178;SDS011;4624;48.126;11.546;2023-04-08T03:27:56;6.80;;;4.93;;
9178;SDS011;4624;48.126;11.546;2023-04-08T03:30:23;4.53;;;4.13;;
9178;SDS011;4624;48.126;11.546;2023-04-08T03:32:50;5.33;;;4.90;;
9178;SDS011;4624;48.126;11.546;2023-04-08T03:35:17;5.60;;;4.50;;
9178;SDS011;4624;48.126;11.546;2023-04-08T03:37:44;4.97;;;4.47;;
9178;SDS011;4624;48.126;11.546;2023-04-08T03:40:11;5.33;;;4.83;;
9178;SDS011;4624;48.126;11.546;2023-04-08T03:42:39;8.10;;;5.53;;
9178;SDS011;4624;48.126;11.546;2023-04-08T03:45:06;5.93;;;5.30;;
9178;SDS011;4624;48.126;11.546;2023-04-08T03:47:33;5.63;;;5.13;;
9178;SDS011;4624;48.126;11.546;2023-04-08T03:50:00;5.60;;;5.10;;
9178;SDS011;4624;48.126;11.546;2023-04-08T03:52:27;5.70;;;5.20;;
9178;SDS011;4624;48.126;11.546;2023-04-08T03:54:54;6.33;;;5.23;;
9178;SDS011;4624;48.126;11.546;2023-04-08T03:57:21;5.40;;;4.90;;
9178;SDS011;4624;48.126;11.546;2023-04-08T03:59:49;6.33;;;5.13;;
9178;SDS011;4624;48.126;11.546;2023-04-08T04:02:15;7.00;;;5.27;;
9178;SDS011;4624;48.126;11.546;2023-04-08T04:04:42;5.87;;;5.20;;
9178;SDS011;4624;48.126;11.546;2023-04-08T04:07:09;6.00;;;5.40;;
9178;SDS011;4624;48.126;11.546;2023-04-08T04:09:36;6.33;;;5.73;;
9178;SDS011;4624;48.126;11.546;2023-04-08T04:12:02;5.80;;;5.20;;
9178;SDS011;4624;48.126;11.546;2023-04-08T04:14:29;5.67;;;5.00;;
9178;SDS011;4624;48.126;11.546;2023-04-08T04:16:57;6.10;;;5.50;;
9178;SDS011;4624;48.126;11.546;2023-04-08T04:19:24;6.53;;;5.93;;
9178;SDS011;4624;48.126;11.546;2023-04-08T04:21:55;6.93;;;5.50;;
9178;SDS011;4624;48.126;11.546;2023-04-08T04:24:22;5.77;;;5.27;;
9178;SDS011;4624;48.126;11.546;2023-04-08T04:26:48;6.50;;;5.37;;
9178;SDS011;4624;48.126;11.546;2023-04-08T04:29:15;5.90;;;5.20;;
9178;SDS011;4624;48.126;11.546;2023-04-08T04:31:42;9.03;;;5.83;;
9178;SDS011;4624;48.126;11.546;2023-04-08T04:34:10;6.20;;;5.57;;
9178;SDS011;4624;48.126;11.546;2023-04-08T04:36:36;8.37;;;6.50;;
9178;SDS011;4624;48.126;11.546;2023-04-08T04:39:03;7.13;;;6.43;;
9178;SDS011;4624;48.126;11.546;2023-04-08T04:41:30;8.33;;;6.57;;
9178;SDS011;4624;48.126;11.546;2023-04-08T04:43:57;7.43;;;6.47;;
9178;SDS011;4624;48.126;11.546;2023-04-08T04:46:23;7.50;;;6.70;;
9178;SDS011;4624;48.126;11.546;2023-04-08T04:48:50;7.47;;;6.63;;
9178;SDS011;4624;48.126;11.546;2023-04-08T04:51:18;8.20;;;6.93;;
9178;SDS011;4624;48.126;11.546;2023-04-08T04:53:45;8.70;;;7.80;;
9178;SDS011;4624;48.126;11.546;2023-04-08T04:56:13;8.67;;;7.30;;
9178;SDS011;4624;48.126;11.546;2023-04-08T04:58:40;8.03;;;6.80;;
9178;SDS011;4624;48.126;11.546;2023-04-08T05:01:07;8.67;;;7.10;;
9178;SDS011;4624;48.126;11.546;2023-04-08T05:03:33;11.87;;;7.77;;
9178;SDS011;4624;48.126;11.546;2023-04-08T05:06:00;9.37;;;7.73;;
9178;SDS011;4624;48.126;11.546;2023-04-08T05:08:28;8.20;;;7.37;;
9178;SDS011;4624;48.126;11.546;2023-04-08T05:10:55;8.10;;;7.13;;
9178;SDS011;4624;48.126;11.546;2023-04-08T05:13:23;8.07;;;7.27;;
9178;SDS011;4624;48.126;11.546;2023-04-08T05:15:50;8.33;;;7.23;;
9178;SDS011;4624;48.126;11.546;2023-04-08T05:18:17;8.97;;;8.07;;
9178;SDS011;4624;48.126;11.546;2023-04-08T05:20:43;8.40;;;7.03;;
9178;SDS011;4624;48.126;11.546;2023-04-08T05:23:10;8.80;;;7.83;;
9178;SDS011;4624;48.126;11.546;2023-04-08T05:25:39;9.07;;;7.60;;
9178;SDS011;4624;48.126;11.546;2023-04-08T05:28:05;8.73;;;7.37;;
9178;SDS011;4624;48.126;11.546;2023-04-08T05:30:32;8.27;;;7.30;;
9178;SDS011;4624;48.126;11.546;2023-04-08T05:32:59;8.27;;;7.40;;
9178;SDS011;4624;48.126;11.546;2023-04-08T05:35:26;12.00;;;8.00;;
9178;SDS011;4624;48.126;11.546;2023-04-08T05:37:53;9.00;;;8.03;;
9178;SDS011;4624;48.126;11.546;2023-04-08T05:40:20;9.20;;;8.30;;
9178;SDS011;4624;48.126;11.546;2023-04-08T05:42:48;8.50;;;7.70;;
9178;SDS011;4624;48.126;11.546;2023-04-08T05:45:14;8.57;;;7.73;;
9178;SDS011;4624;48.126;11.546;2023-04-08T05:47:41;8.93;;;7.70;;
9178;SDS011;4624;48.126;11.546;2023-04-08T05:50:08;9.03;;;8.13;;
9178;SDS011;4624;48.126;11.546;2023-04-08T05:52:36;9.53;;;8.60;;
9178;SDS011;4624;48.126;11.546;2023-04-08T05:55:03;9.53;;;8.20;;
9178;SDS011;4624;48.126;11.546;2023-04-08T05:57:31;10.70;;;8.47;;
9178;SDS011;4624;48.126;11.546;2023-04-08T05:59:59;9.67;;;8.67;;
9178;SDS011;4624;48.126;11.546;2023-04-08T06:02:26;9.60;;;7.97;;
9178;SDS011;4624;48.126;11.546;2023-04-08T06:04:52;10.60;;;9.07;;
9178;SDS011;4624;48.126;11.546;2023-04-08T06:07:19;9.20;;;8.30;;
9178;SDS011;4624;48.126;11.546;2023-04-08T06:09:46;9.80;;;7.20;;
9178;SDS011;4624;48.126;11.546;2023-04-08T06:12:13;8.80;;;7.90;;
9178;SDS011;4624;48.126;11.546;2023-04-08T06:14:39;8.77;;;7.60;;
9178;SDS011;4624;48.126;11.546;2023-04-08T06:17:07;9.10;;;7.97;;
9178;SDS011;4624;48.126;11.546;2023-04-08T06:19:34;9.03;;;8.13;;
9178;SDS011;4624;48.126;11.546;2023-04-08T06:22:01;9.63;;;8.00;;
9178;SDS011;4624;48.126;11.546;2023-04-08T06:24:28;8.73;;;7.83;;
9178;SDS011;4624;48.126;11.546;2023-04-08T06:26:54;8.83;;;7.33;;
9178;SDS011;4624;48.126;11.546;2023-04-08T06:29:21;9.07;;;7.80;;
9178;SDS011;4624;48.126;11.546;2023-04-08T06:31:48;7.77;;;7.07;;
9178;SDS011;4624;48.126;11.546;2023-04-08T06:34:16;8.70;;;7.90;;
9178;SDS011;4624;48.126;11.546;2023-04-08T06:36:43;9.33;;;8.07;;
9178;SDS011;4624;48.126;11.546;2023-04-08T06:39:10;10.87;;;7.87;;
9178;SDS011;4624;48.126;11.546;2023-04-08T06:41:37;9.60;;;7.77;;
9178;SDS011;4624;48.126;11.546;2023-04-08T06:44:03;8.30;;;7.17;;
9178;SDS011;4624;48.126;11.546;2023-04-08T06:46:30;8.17;;;7.37;;
9178;SDS011;4624;48.126;11.546;2023-04-08T06:48:57;9.63;;;8.27;;
9178;SDS011;4624;48.126;11.546;2023-04-08T06:51:25;9.47;;;8.00;;
9178;SDS011;4624;48.126;11.546;2023-04-08T06:53:52;10.43;;;8.43;;
9178;SDS011;4624;48.126;11.546;2023-04-08T06:56:19;9.57;;;8.60;;
9178;SDS011;4624;48.126;11.546;2023-04-08T06:58:47;10.50;;;8.83;;
9178;SDS011;4624;48.126;11.546;2023-04-08T07:01:13;10.00;;;8.97;;
9178;SDS011;4624;48.126;11.546;2023-04-08T07:03:40;9.90;;;8.73;;
9178;SDS011;4624;48.126;11.546;2023-04-08T07:06:07;10.87;;;8.63;;
9178;SDS011;4624;48.126;11.546;2023-04-08T07:08:35;10.57;;;9.10;;
9178;SDS011;4624;48.126;11.546;2023-04-08T07:11:02;10.17;;;9.13;;
9178;SDS011;4624;48.126;11.546;2023-04-08T07:13:29;9.90;;;8.90;;
9178;SDS011;4624;48.126;11.546;2023-04-08T07:15:56;12.33;;;9.47;;
9178;SDS011;4624;48.126;11.546;2023-04-08T07:18:23;10.53;;;9.00;;
9178;SDS011;4624;48.126;11.546;2023-04-08T07:20:50;10.27;;;9.17;;
9178;SDS011;4624;48.126;11.546;2023-04-08T07:23:17;11.40;;;10.20;;
9178;SDS011;4624;48.126;11.546;2023-04-08T07:25:46;10.17;;;9.17;;
9178;SDS011;4624;48.126;11.546;2023-04-08T07:28:13;9.87;;;8.90;;
9178;SDS011;4624;48.126;11.546;2023-04-08T07:30:39;10.03;;;9.03;;
9178;SDS011;4624;48.126;11.546;2023-04-08T07:33:06;14.13;;;9.13;;
9178;SDS011;4624;48.126;11.546;2023-04-08T07:35:33;9.80;;;8.80;;
9178;SDS011;4624;48.126;11.546;2023-04-08T07:38:00;10.97;;;9.30;;
9178;SDS011;4624;48.126;11.546;2023-04-08T07:40:28;12.20;;;9.00;;
9178;SDS011;4624;48.126;11.546;2023-04-08T07:42:56;10.23;;;8.93;;
9178;SDS011;4624;48.126;11.546;2023-04-08T07:45:23;10.73;;;8.87;;
9178;SDS011;4624;48.126;11.546;2023-04-08T07:47:49;10.47;;;8.77;;
9178;SDS011;4624;48.126;11.546;2023-04-08T07:50:16;9.93;;;8.93;;
9178;SDS011;4624;48.126;11.546;2023-04-08T07:52:43;9.53;;;8.40;;
9178;SDS011;4624;48.126;11.546;2023-04-08T07:55:10;9.57;;;8.57;;
9178;SDS011;4624;48.126;11.546;2023-04-08T07:57:37;9.93;;;8.53;;
9178;SDS011;4624;48.126;11.546;2023-04-08T08:00:05;8.40;;;7.60;;
9178;SDS011;4624;48.126;11.546;2023-04-08T08:02:33;9.97;;;7.83;;
9178;SDS011;4624;48.126;11.546;2023-04-08T08:05:00;7.77;;;6.93;;
9178;SDS011;4624;48.126;11.546;2023-04-08T08:07:27;8.47;;;7.57;;
9178;SDS011;4624;48.126;11.546;2023-04-08T08:09:54;8.67;;;6.70;;
9178;SDS011;4624;48.126;11.546;2023-04-08T08:12:21;9.27;;;7.27;;
9178;SDS011;4624;48.126;11.546;2023-04-08T08:14:48;8.83;;;7.30;;
9178;SDS011;4624;48.126;11.546;2023-04-08T08:17:16;13.50;;;10.07;;
9178;SDS011;4624;48.126;11.546;2023-04-08T08:19:43;9.50;;;8.50;;
9178;SDS011;4624;48.126;11.546;2023-04-08T08:22:10;8.97;;;7.47;;
9178;SDS011;4624;48.126;11.546;2023-04-08T08:24:37;8.27;;;7.40;;
9178;SDS011;4624;48.126;11.546;2023-04-08T08:27:03;8.43;;;7.57;;
9178;SDS011;4624;48.126;11.546;2023-04-08T08:29:30;10.03;;;7.60;;
9178;SDS011;4624;48.126;11.546;2023-04-08T08:31:57;9.23;;;7.60;;
9178;SDS011;4624;48.126;11.546;2023-04-08T08:34:25;8.43;;;7.53;;
9178;SDS011;4624;48.126;11.546;2023-04-08T08:36:52;8.73;;;7.83;;
9178;SDS011;4624;48.126;11.546;2023-04-08T08:39:19;9.67;;;8.10;;
9178;SDS011;4624;48.126;11.546;2023-04-08T08:41:45;8.90;;;8.00;;
9178;SDS011;4624;48.126;11.546;2023-04-08T08:44:12;8.70;;;7.57;;
9178;SDS011;4624;48.126;11.546;2023-04-08T08:46:40;8.30;;;7.40;;
9178;SDS011;4624;48.126;11.546;2023-04-08T08:49:09;12.33;;;8.43;;
9178;SDS011;4624;48.126;11.546;2023-04-08T08:51:38;7.97;;;7.17;;
9178;SDS011;4624;48.126;11.546;2023-04-08T08:54:05;8.83;;;7.93;;
9178;SDS011;4624;48.126;11.546;2023-04-08T08:56:33;7.93;;;7.13;;
9178;SDS011;4624;48.126;11.546;2023-04-08T08:58:59;8.63;;;7.73;;
9178;SDS011;4624;48.126;11.546;2023-04-08T09:01:29;8.90;;;7.90;;
9178;SDS011;4624;48.126;11.546;2023-04-08T09:04:07;8.90;;;8.00;;
9178;SDS011;4624;48.126;11.546;2023-04-08T09:06:35;9.23;;;7.67;;
9178;SDS011;4624;48.126;11.546;2023-04-08T09:09:03;9.77;;;7.57;;
9178;SDS011;4624;48.126;11.546;2023-04-08T09:11:34;10.03;;;7.97;;
9178;SDS011;4624;48.126;11.546;2023-04-08T09:14:02;10.20;;;8.90;;
9178;SDS011;4624;48.126;11.546;2023-04-08T09:16:30;9.87;;;8.67;;
9178;SDS011;4624;48.126;11.546;2023-04-08T09:19:06;10.70;;;8.57;;
9178;SDS011;4624;48.126;11.546;2023-04-08T09:21:34;7.57;;;6.70;;
9178;SDS011;4624;48.126;11.546;2023-04-08T09:24:01;7.77;;;6.93;;
9178;SDS011;4624;48.126;11.546;2023-04-08T09:26:30;8.67;;;7.07;;
9178;SDS011;4624;48.126;11.546;2023-04-08T09:28:57;7.23;;;6.53;;
9178;SDS011;4624;48.126;11.546;2023-04-08T09:31:25;7.83;;;7.03;;
9178;SDS011;4624;48.126;11.546;2023-04-08T09:33:53;8.00;;;7.20;;
9178;SDS011;4624;48.126;11.546;2023-04-08T09:36:21;7.50;;;6.80;;
9178;SDS011;4624;48.126;11.546;2023-04-08T09:38:50;7.67;;;6.80;;
9178;SDS011;4624;48.126;11.546;2023-04-08T09:41:18;9.47;;;7.20;;
9178;SDS011;4624;48.126;11.546;2023-04-08T09:43:47;8.80;;;7.50;;
9178;SDS011;4624;48.126;11.546;2023-04-08T09:46:16;7.83;;;6.90;;
9178;SDS011;4624;48.126;11.546;2023-04-08T09:48:51;8.23;;;6.77;;
9178;SDS011;4624;48.126;11.546;2023-04-08T09:51:23;8.53;;;6.70;;
9178;SDS011;4624;48.126;11.546;2023-04-08T09:53:55;9.67;;;7.60;;
9178;SDS011;4624;48.126;11.546;2023-04-08T09:56:29;8.40;;;7.03;;
9178;SDS011;4624;48.126;11.546;2023-04-08T09:59:08;7.50;;;6.80;;
9178;SDS011;4624;48.126;11.546;2023-04-08T10:01:39;7.87;;;6.97;;
9178;SDS011;4624;48.126;11.546;2023-04-08T10:04:11;9.13;;;7.17;;
9178;SDS011;4624;48.126;11.546;2023-04-08T10:06:41;8.00;;;7.17;;
9178;SDS011;4624;48.126;11.546;2023-04-08T10:09:08;8.47;;;7.63;;
9178;SDS011;4624;48.126;11.546;2023-04-08T10:11:37;8.77;;;7.87;;
9178;SDS011;4624;48.126;11.546;2023-04-08T10:14:04;8.37;;;7.57;;
9178;SDS011;4624;48.126;11.546;2023-04-08T10:16:31;8.67;;;7.77;;
9178;SDS011;4624;48.126;11.546;2023-04-08T10:18:58;8.73;;;7.63;;
9178;SDS011;4624;48.126;11.546;2023-04-08T10:21:31;9.10;;;7.67;;
9178;SDS011;4624;48.126;11.546;2023-04-08T10:23:59;8.20;;;7.40;;
9178;SDS011;4624;48.126;11.546;2023-04-08T10:26:34;8.77;;;7.87;;
9178;SDS011;4624;48.126;11.546;2023-04-08T10:32:06;9.70;;;8.27;;
9178;SDS011;4624;48.126;11.546;2023-04-08T10:34:33;9.27;;;8.37;;
9178;SDS011;4624;48.126;11.546;2023-04-08T10:37:00;8.90;;;8.10;;
9178;SDS011;4624;48.126;11.546;2023-04-08T10:39:30;9.37;;;8.27;;
9178;SDS011;4624;48.126;11.546;2023-04-08T10:42:00;8.73;;;7.93;;
9178;SDS011;4624;48.126;11.546;2023-04-08T10:44:28;9.27;;;8.37;;
9178;SDS011;4624;48.126;11.546;2023-04-08T10:46:54;8.77;;;7.83;;
9178;SDS011;4624;48.126;11.546;2023-04-08T10:49:21;9.93;;;8.90;;
9178;SDS011;4624;48.126;11.546;2023-04-08T10:51:57;9.53;;;8.13;;
9178;SDS011;4624;48.126;11.546;2023-04-08T10:54:23;10.70;;;9.60;;
9178;SDS011;4624;48.126;11.546;2023-04-08T10:56:51;10.23;;;8.93;;
9178;SDS011;4624;48.126;11.546;2023-04-08T10:59:27;9.67;;;8.57;;
9178;SDS011;4624;48.126;11.546;2023-04-08T11:01:56;9.23;;;8.33;;
9178;SDS011;4624;48.126;11.546;2023-04-08T11:04:23;10.73;;;8.97;;
9178;SDS011;4624;48.126;11.546;2023-04-08T11:06:51;9.63;;;8.73;;
9178;SDS011;4624;48.126;11.546;2023-04-08T11:09:18;9.87;;;8.63;;
9178;SDS011;4624;48.126;11.546;2023-04-08T11:11:45;9.93;;;8.93;;
9178;SDS011;4624;48.126;11.546;2023-04-08T11:14:12;10.80;;;9.00;;
9178;SDS011;4624;48.126;11.546;2023-04-08T11:16:42;10.50;;;9.50;;
9178;SDS011;4624;48.126;11.546;2023-04-08T11:19:09;10.27;;;9.20;;
9178;SDS011;4624;48.126;11.546;2023-04-08T11:21:39;10.10;;;9.07;;
9178;SDS011;4624;48.126;11.546;2023-04-08T11:24:07;9.80;;;8.80;;
9178;SDS011;4624;48.126;11.546;2023-04-08T11:26:36;11.97;;;8.87;;
9178;SDS011;4624;48.126;11.546;2023-04-08T11:29:03;10.13;;;9.13;;
9178;SDS011;4624;48.126;11.546;2023-04-08T11:31:31;10.77;;;9.67;;
9178;SDS011;4624;48.126;11.546;2023-04-08T11:34:00;11.27;;;9.33;;
9178;SDS011;4624;48.126;11.546;2023-04-08T11:36:27;10.10;;;9.03;;
9178;SDS011;4624;48.126;11.546;2023-04-08T11:38:54;11.07;;;9.67;;
9178;SDS011;4624;48.126;11.546;2023-04-08T11:41:21;10.47;;;9.07;;
9178;SDS011;4624;48.126;11.546;2023-04-08T11:43:51;10.40;;;9.40;;
9178;SDS011;4624;48.126;11.546;2023-04-08T11:46:19;10.97;;;9.37;;
9178;SDS011;4624;48.126;11.546;2023-04-08T11:48:57;9.40;;;8.50;;
9178;SDS011;4624;48.126;11.546;2023-04-08T11:51:29;9.77;;;8.73;;
9178;SDS011;4624;48.126;11.546;2023-04-08T11:53:56;10.03;;;8.93;;
9178;SDS011;4624;48.126;11.546;2023-04-08T11:56:23;9.30;;;8.40;;
9178;SDS011;4624;48.126;11.546;2023-04-08T11:58:50;11.13;;;8.70;;
9178;SDS011;4624;48.126;11.546;2023-04-08T12:01:17;10.63;;;9.63;;
9178;SDS011;4624;48.126;11.546;2023-04-08T12:03:57;9.83;;;8.83;;
9178;SDS011;4624;48.126;11.546;2023-04-08T12:06:26;9.63;;;8.63;;
9178;SDS011;4624;48.126;11.546;2023-04-08T12:08:54;9.83;;;8.90;;
9178;SDS011;4624;48.126;11.546;2023-04-08T12:11:21;11.07;;;8.87;;
9178;SDS011;4624;48.126;11.546;2023-04-08T12:13:48;13.93;;;8.80;;
9178;SDS011;4624;48.126;11.546;2023-04-08T12:16:16;11.17;;;9.97;;
9178;SDS011;4624;48.126;11.546;2023-04-08T12:18:43;9.67;;;8.77;;
9178;SDS011;4624;48.126;11.546;2023-04-08T12:21:10;10.93;;;9.10;;
9178;SDS011;4624;48.126;11.546;2023-04-08T12:23:38;9.80;;;8.87;;
9178;SDS011;4624;48.126;11.546;2023-04-08T12:26:05;10.00;;;9.00;;
9178;SDS011;4624;48.126;11.546;2023-04-08T12:28:32;10.57;;;9.53;;
9178;SDS011;4624;48.126;11.546;2023-04-08T12:31:00;8.70;;;7.90;;
9178;SDS011;4624;48.126;11.546;2023-04-08T12:33:27;9.30;;;8.40;;
9178;SDS011;4624;48.126;11.546;2023-04-08T12:35:53;8.70;;;7.57;;
9178;SDS011;4624;48.126;11.546;2023-04-08T12:38:22;8.90;;;7.60;;
9178;SDS011;4624;48.126;11.546;2023-04-08T12:40:50;8.80;;;7.90;;
9178;SDS011;4624;48.126;11.546;2023-04-08T12:43:17;8.97;;;8.07;;
9178;SDS011;4624;48.126;11.546;2023-04-08T12:45:43;8.57;;;7.50;;
9178;SDS011;4624;48.126;11.546;2023-04-08T12:48:10;9.20;;;8.00;;
9178;SDS011;4624;48.126;11.546;2023-04-08T12:50:37;8.37;;;7.53;;
9178;SDS011;4624;48.126;11.546;2023-04-08T12:53:04;8.10;;;7.30;;
9178;SDS011;4624;48.126;11.546;2023-04-08T12:55:30;8.20;;;7.47;;
9178;SDS011;4624;48.126;11.546;2023-04-08T12:57:59;7.77;;;6.83;;
9178;SDS011;4624;48.126;11.546;2023-04-08T13:00:26;8.30;;;7.50;;
9178;SDS011;4624;48.126;11.546;2023-04-08T13:02:52;7.43;;;6.73;;
9178;SDS011;4624;48.126;11.546;2023-04-08T13:05:19;6.73;;;6.10;;
9178;SDS011;4624;48.126;11.546;2023-04-08T13:07:46;7.03;;;6.40;;
9178;SDS011;4624;48.126;11.546;2023-04-08T13:10:12;7.10;;;6.50;;
9178;SDS011;4624;48.126;11.546;2023-04-08T13:12:39;6.43;;;5.83;;
9178;SDS011;4624;48.126;11.546;2023-04-08T13:15:08;6.90;;;6.20;;
9178;SDS011;4624;48.126;11.546;2023-04-08T13:17:36;6.60;;;5.93;;
9178;SDS011;4624;48.126;11.546;2023-04-08T13:20:03;6.37;;;5.73;;
9178;SDS011;4624;48.126;11.546;2023-04-08T13:22:32;7.10;;;6.50;;
9178;SDS011;4624;48.126;11.546;2023-04-08T13:24:59;7.07;;;6.47;;
9178;SDS011;4624;48.126;11.546;2023-04-08T13:27:26;7.60;;;6.70;;
9178;SDS011;4624;48.126;11.546;2023-04-08T13:29:53;7.00;;;6.30;;
9178;SDS011;4624;48.126;11.546;2023-04-08T13:32:21;7.50;;;6.80;;
9178;SDS011;4624;48.126;11.546;2023-04-08T13:34:48;6.90;;;6.03;;
9178;SDS011;4624;48.126;11.546;2023-04-08T13:37:14;5.70;;;5.10;;
9178;SDS011;4624;48.126;11.546;2023-04-08T13:39:41;6.57;;;5.83;;
9178;SDS011;4624;48.126;11.546;2023-04-08T13:42:08;6.60;;;6.00;;
9178;SDS011;4624;48.126;11.546;2023-04-08T13:44:35;6.20;;;5.60;;
9178;SDS011;4624;48.126;11.546;2023-04-08T13:47:01;6.90;;;6.30;;
9178;SDS011;4624;48.126;11.546;2023-04-08T13:49:30;5.53;;;5.03;;
9178;SDS011;4624;48.126;11.546;2023-04-08T13:51:56;6.33;;;5.73;;
9178;SDS011;4624;48.126;11.546;2023-04-08T13:54:23;6.57;;;5.83;;
9178;SDS011;4624;48.126;11.546;2023-04-08T13:56:50;5.90;;;5.40;;
9178;SDS011;4624;48.126;11.546;2023-04-08T13:59:17;6.80;;;6.20;;
9178;SDS011;4624;48.126;11.546;2023-04-08T14:01:43;6.47;;;5.87;;
9178;SDS011;4624;48.126;11.546;2023-04-08T14:04:11;6.30;;;5.80;;
9178;SDS011;4624;48.126;11.546;2023-04-08T14:06:39;5.77;;;5.37;;
9178;SDS011;4624;48.126;11.546;2023-04-08T14:09:05;6.10;;;5.57;;
9178;SDS011;4624;48.126;11.546;2023-04-08T14:11:32;6.00;;;5.40;;
9178;SDS011;4624;48.126;11.546;2023-04-08T14:13:59;6.03;;;5.43;;
9178;SDS011;4624;48.126;11.546;2023-04-08T14:16:26;6.10;;;5.37;;
9178;SDS011;4624;48.126;11.546;2023-04-08T14:18:54;5.63;;;5.13;;
9178;SDS011;4624;48.126;11.546;2023-04-08T14:21:21;6.57;;;5.97;;
9178;SDS011;4624;48.126;11.546;2023-04-08T14:23:50;6.43;;;5.83;;
9178;SDS011;4624;48.126;11.546;2023-04-08T14:26:16;6.00;;;5.40;;
9178;SDS011;4624;48.126;11.546;2023-04-08T14:28:43;6.67;;;6.00;;
9178;SDS011;4624;48.126;11.546;2023-04-08T14:31:11;6.60;;;6.00;;
9178;SDS011;4624;48.126;11.546;2023-04-08T14:33:38;6.77;;;5.80;;
9178;SDS011;4624;48.126;11.546;2023-04-08T14:36:06;5.90;;;5.40;;
9178;SDS011;4624;48.126;11.546;2023-04-08T14:38:33;6.33;;;5.80;;
9178;SDS011;4624;48.126;11.546;2023-04-08T14:41:01;6.00;;;5.40;;
9178;SDS011;4624;48.126;11.546;2023-04-08T14:43:28;6.20;;;5.47;;
9178;SDS011;4624;48.126;11.546;2023-04-08T14:45:55;6.37;;;5.77;;
9178;SDS011;4624;48.126;11.546;2023-04-08T14:48:22;6.03;;;5.43;;
9178;SDS011;4624;48.126;11.546;2023-04-08T14:50:49;6.23;;;5.73;;
9178;SDS011;4624;48.126;11.546;2023-04-08T14:53:16;6.63;;;6.03;;
9178;SDS011;4624;48.126;11.546;2023-04-08T14:55:43;6.40;;;5.80;;
9178;SDS011;4624;48.126;11.546;2023-04-08T14:58:11;6.10;;;5.50;;
9178;SDS011;4624;48.126;11.546;2023-04-08T15:00:38;6.40;;;5.80;;
9178;SDS011;4624;48.126;11.546;2023-04-08T15:03:08;6.10;;;5.53;;